createdAt,value
2023-02-19T00:02:07.449Z,1.45
2023-02-19T00:05:16.159Z,1.23
2023-02-19T00:08:24.494Z,1.48
2023-02-19T00:11:35.250Z,1.40
2023-02-19T00:14:43.456Z,1.30
2023-02-19T00:17:58.492Z,1.10
2023-02-19T00:21:07.310Z,1.40
2023-02-19T00:24:19.461Z,1.10
2023-02-19T00:27:28.017Z,1.08
2023-02-19T00:30:42.531Z,1.30
2023-02-19T00:33:45.911Z,0.90
2023-02-19T00:37:00.519Z,0.97
2023-02-19T00:40:08.436Z,1.12
2023-02-19T00:43:17.050Z,1.00
2023-02-19T00:46:36.619Z,0.85
2023-02-19T00:49:45.113Z,1.00
2023-02-19T00:52:53.497Z,1.00
2023-02-19T00:56:09.940Z,0.93
2023-02-19T00:59:24.466Z,0.70
2023-02-19T01:02:32.544Z,0.90
2023-02-19T01:05:41.230Z,1.20
2023-02-19T01:08:56.435Z,1.00
2023-02-19T01:12:06.635Z,0.90
2023-02-19T01:15:15.505Z,0.90
2023-02-19T01:18:30.464Z,1.00
2023-02-19T01:21:32.451Z,0.80
2023-02-19T01:24:47.481Z,0.77
2023-02-19T01:27:49.270Z,0.70
2023-02-19T01:31:08.901Z,0.80
2023-02-19T01:34:18.586Z,0.70
2023-02-19T01:37:33.517Z,1.58
2023-02-19T01:40:42.458Z,0.70
2023-02-19T01:44:06.487Z,0.73
2023-02-19T01:47:15.498Z,0.90
2023-02-19T01:50:34.513Z,0.80
2023-02-19T01:53:47.758Z,0.80
2023-02-19T01:57:13.529Z,0.70
2023-02-19T02:00:17.026Z,0.80
2023-02-19T02:03:32.555Z,0.70
2023-02-19T02:06:58.539Z,0.90
2023-02-19T02:10:07.433Z,0.70
2023-02-19T02:13:16.482Z,0.60
2023-02-19T02:16:41.649Z,0.80
2023-02-19T02:20:19.509Z,0.98
2023-02-19T02:23:47.576Z,0.88
2023-02-19T02:27:17.511Z,1.02
2023-02-19T02:30:37.678Z,0.70
2023-02-19T02:34:15.556Z,0.80
2023-02-19T02:37:17.474Z,0.80
2023-02-19T02:40:32.499Z,0.60
2023-02-19T02:43:34.713Z,0.90
2023-02-19T02:46:52.553Z,0.80
2023-02-19T02:50:03.594Z,0.77
2023-02-19T02:53:42.529Z,0.80
2023-02-19T02:56:59.552Z,0.70
2023-02-19T03:00:15.532Z,0.80
2023-02-19T03:03:27.468Z,0.60
2023-02-19T03:06:39.592Z,0.80
2023-02-19T03:09:49.707Z,0.80
2023-02-19T03:13:08.530Z,0.88
2023-02-19T03:16:25.567Z,0.90
2023-02-19T03:19:41.131Z,0.63
2023-02-19T03:22:52.585Z,0.80
2023-02-19T03:26:01.567Z,0.90
2023-02-19T03:29:19.548Z,0.80
2023-02-19T03:32:34.533Z,0.75
2023-02-19T03:35:56.199Z,0.80
2023-02-19T03:39:12.536Z,0.95
2023-02-19T03:42:42.389Z,1.00
2023-02-19T03:46:13.630Z,0.70
2023-02-19T03:49:27.227Z,0.80
2023-02-19T03:53:08.582Z,0.80
2023-02-19T03:56:34.650Z,0.55
2023-02-19T03:59:53.153Z,0.80
2023-02-19T04:03:22.559Z,0.68
2023-02-19T04:06:40.566Z,1.15
2023-02-19T04:09:48.810Z,0.83
2023-02-19T04:13:12.561Z,0.95
2023-02-19T04:16:27.602Z,0.70
2023-02-19T04:19:39.871Z,0.85
2023-02-19T04:22:48.581Z,0.80
2023-02-19T04:26:00.326Z,0.70
2023-02-19T04:29:09.636Z,0.60
2023-02-19T04:32:24.655Z,0.70
2023-02-19T04:35:26.473Z,0.70
2023-02-19T04:38:41.595Z,0.70
2023-02-19T04:41:43.485Z,0.50
2023-02-19T04:44:58.614Z,0.98
2023-02-19T04:48:00.473Z,0.70
2023-02-19T04:51:16.638Z,0.50
2023-02-19T04:54:25.662Z,0.70
2023-02-19T04:57:35.173Z,0.70
2023-02-19T05:00:44.593Z,0.70
2023-02-19T05:03:53.228Z,0.60
2023-02-19T05:07:01.634Z,0.70
2023-02-19T05:10:10.246Z,0.60
2023-02-19T05:13:20.669Z,0.80
2023-02-19T05:16:29.370Z,0.80
2023-02-19T05:19:37.617Z,0.90
2023-02-19T05:22:52.622Z,0.90
2023-02-19T05:25:54.902Z,1.00
2023-02-19T05:29:09.620Z,0.80
2023-02-19T05:32:17.661Z,1.08
2023-02-19T05:35:32.627Z,1.10
2023-02-19T05:38:41.633Z,0.95
2023-02-19T05:41:50.366Z,1.15
2023-02-19T05:44:58.647Z,0.80
2023-02-19T05:48:14.589Z,1.25
2023-02-19T05:51:19.309Z,1.35
2023-02-19T05:54:36.641Z,1.10
2023-02-19T05:57:47.837Z,1.20
2023-02-19T06:00:56.617Z,1.20
2023-02-19T06:04:05.737Z,1.27
2023-02-19T06:07:14.658Z,1.67
2023-02-19T06:10:23.737Z,1.30
2023-02-19T06:13:31.650Z,1.33
2023-02-19T06:16:40.608Z,1.60
2023-02-19T06:19:48.698Z,1.62
2023-02-19T06:22:57.586Z,1.87
2023-02-19T06:26:15.649Z,1.90
2023-02-19T06:29:25.486Z,1.60
2023-02-19T06:32:33.664Z,1.60
2023-02-19T06:35:48.641Z,1.80
2023-02-19T06:38:57.689Z,2.05
2023-02-19T06:42:12.686Z,2.10
2023-02-19T06:45:20.654Z,2.25
2023-02-19T06:48:37.685Z,2.20
2023-02-19T06:51:39.596Z,2.90
2023-02-19T06:55:01.729Z,2.78
2023-02-19T06:58:16.677Z,3.30
2023-02-19T07:01:26.628Z,4.20
2023-02-19T07:04:34.701Z,4.23
2023-02-19T07:07:45.851Z,6.05
2023-02-19T07:11:02.905Z,6.53
2023-02-19T07:14:21.690Z,6.90
2023-02-19T07:17:23.518Z,6.35
2023-02-19T07:20:39.692Z,7.27
2023-02-19T07:23:41.838Z,7.43
2023-02-19T07:26:56.689Z,8.05
2023-02-19T07:30:04.685Z,8.88
2023-02-19T07:33:14.565Z,8.80
2023-02-19T07:36:24.671Z,10.10
2023-02-19T07:39:33.557Z,10.07
2023-02-19T07:42:41.765Z,10.32
2023-02-19T07:45:51.506Z,10.57
2023-02-19T07:48:59.712Z,11.48
2023-02-19T07:52:14.717Z,13.43
2023-02-19T07:55:32.285Z,12.80
2023-02-19T07:58:41.711Z,13.07
2023-02-19T08:01:57.703Z,11.45
2023-02-19T08:05:13.686Z,12.32
2023-02-19T08:08:16.045Z,12.37
2023-02-19T08:11:30.682Z,12.27
2023-02-19T08:14:45.734Z,11.98
2023-02-19T08:18:00.690Z,11.88
2023-02-19T08:21:11.462Z,11.35
2023-02-19T08:24:19.703Z,11.13
2023-02-19T08:27:28.380Z,11.20
2023-02-19T08:30:45.840Z,11.98
2023-02-19T08:33:55.774Z,10.63
2023-02-19T08:37:04.474Z,8.30
2023-02-19T08:40:12.750Z,7.47
2023-02-19T08:43:21.373Z,3.95
2023-02-19T08:46:35.737Z,2.67
2023-02-19T08:49:44.761Z,2.50
2023-02-19T08:52:52.713Z,2.40
2023-02-19T08:56:16.697Z,2.20
2023-02-19T08:59:24.729Z,2.55
2023-02-19T09:02:39.817Z,3.08
2023-02-19T09:05:41.986Z,3.10
2023-02-19T09:08:56.794Z,2.85
2023-02-19T09:12:05.760Z,3.03
2023-02-19T09:15:20.696Z,2.75
2023-02-19T09:18:29.567Z,3.25
2023-02-19T09:21:48.753Z,3.65
2023-02-19T09:24:50.654Z,4.20
2023-02-19T09:28:05.733Z,4.87
2023-02-19T09:31:17.106Z,4.95
2023-02-19T09:34:26.990Z,4.82
2023-02-19T09:37:41.736Z,4.90
2023-02-19T09:40:43.793Z,5.15
2023-02-19T09:43:59.812Z,5.27
2023-02-19T09:47:11.750Z,5.68
2023-02-19T09:50:25.409Z,6.35
2023-02-19T09:53:46.778Z,6.10
2023-02-19T09:57:03.834Z,6.87
2023-02-19T10:00:22.777Z,7.33
2023-02-19T10:03:34.832Z,7.22
2023-02-19T10:06:43.921Z,7.53
2023-02-19T10:09:59.040Z,7.37
2023-02-19T10:13:30.365Z,7.53
2023-02-19T10:16:33.637Z,8.27
2023-02-19T10:19:48.733Z,8.27
2023-02-19T10:23:04.226Z,8.07
2023-02-19T10:26:18.736Z,8.27
2023-02-19T10:29:22.467Z,7.12
2023-02-19T10:32:36.754Z,5.60
2023-02-19T10:36:03.917Z,3.87
2023-02-19T10:39:35.200Z,4.70
2023-02-19T10:42:53.824Z,4.15
2023-02-19T10:46:20.852Z,4.47
2023-02-19T10:49:39.830Z,3.73
2023-02-19T10:53:01.767Z,4.20
2023-02-19T10:56:22.620Z,3.45
2023-02-19T10:59:37.786Z,3.25
2023-02-19T11:02:45.807Z,3.55
2023-02-19T11:06:02.038Z,2.40
2023-02-19T11:09:10.770Z,2.10
2023-02-19T11:12:26.957Z,1.65
2023-02-19T11:15:38.817Z,1.60
2023-02-19T11:18:57.014Z,2.40
2023-02-19T11:22:07.849Z,1.33
2023-02-19T11:25:27.802Z,1.50
2023-02-19T11:28:46.814Z,2.00
2023-02-19T11:31:49.124Z,1.80
2023-02-19T11:35:23.803Z,2.12
2023-02-19T11:38:32.809Z,1.63
2023-02-19T11:42:13.809Z,1.65
2023-02-19T11:45:37.085Z,2.28
2023-02-19T11:49:01.860Z,2.25
2023-02-19T11:52:28.824Z,1.90
2023-02-19T11:56:01.488Z,2.73
2023-02-19T11:59:11.795Z,2.15
2023-02-19T12:02:37.576Z,2.08
2023-02-19T12:06:04.835Z,2.22
2023-02-19T12:09:33.269Z,1.87
2023-02-19T12:13:11.806Z,1.90
2023-02-19T12:16:44.901Z,2.80
2023-02-19T12:20:22.929Z,1.87
2023-02-19T12:23:51.622Z,2.37
2023-02-19T12:27:31.822Z,2.53
2023-02-19T12:30:59.893Z,1.80
2023-02-19T12:34:34.850Z,1.40
2023-02-19T12:38:09.861Z,2.17
2023-02-19T12:41:28.354Z,1.73
2023-02-19T12:44:53.877Z,1.42
2023-02-19T12:48:30.863Z,1.53
2023-02-19T12:51:50.934Z,1.42
2023-02-19T12:55:17.833Z,1.20
2023-02-19T12:58:45.849Z,1.30
2023-02-19T13:02:10.897Z,1.65
2023-02-19T13:05:41.848Z,0.90
2023-02-19T13:09:06.639Z,0.80
2023-02-19T13:12:35.885Z,0.98
2023-02-19T13:15:55.837Z,0.90
2023-02-19T13:19:08.977Z,1.77
2023-02-19T13:22:42.982Z,1.03
2023-02-19T13:26:12.038Z,1.00
2023-02-19T13:29:58.842Z,1.30
2023-02-19T13:33:21.912Z,1.08
2023-02-19T13:36:37.884Z,1.40
2023-02-19T13:39:55.874Z,1.10
2023-02-19T13:43:21.528Z,0.85
2023-02-19T13:46:31.921Z,1.45
2023-02-19T13:49:41.397Z,1.10
2023-02-19T13:52:49.994Z,0.82
2023-02-19T13:56:43.913Z,0.80
2023-02-19T13:59:48.384Z,1.25
2023-02-19T14:03:33.849Z,0.90
2023-02-19T14:07:02.437Z,0.90
2023-02-19T14:10:39.915Z,1.20
2023-02-19T14:13:58.726Z,0.90
2023-02-19T14:17:37.029Z,0.50
2023-02-19T14:20:45.851Z,0.90
2023-02-19T14:24:00.026Z,1.10
2023-02-19T14:27:14.868Z,1.05
2023-02-19T14:30:27.398Z,0.90
2023-02-19T14:33:39.914Z,1.20
2023-02-19T14:40:11.889Z,1.80
2023-02-19T14:43:24.176Z,1.35
2023-02-19T14:46:38.972Z,0.90
2023-02-19T14:49:51.844Z,0.60
2023-02-19T14:53:04.918Z,0.80
2023-02-19T14:56:24.466Z,0.60
2023-02-19T14:59:38.896Z,0.80
2023-02-19T15:02:55.908Z,1.50
2023-02-19T15:06:18.885Z,1.05
2023-02-19T15:09:38.964Z,1.15
2023-02-19T15:12:51.560Z,1.35
2023-02-19T15:16:06.970Z,1.23
2023-02-19T15:19:12.946Z,0.97
2023-02-19T15:22:31.050Z,1.02
2023-02-19T15:25:39.973Z,1.00
2023-02-19T15:29:03.945Z,0.50
2023-02-19T15:32:18.560Z,1.95
2023-02-19T15:35:34.999Z,0.70
2023-02-19T15:38:43.941Z,0.62
2023-02-19T15:42:00.120Z,0.60
2023-02-19T15:45:17.992Z,0.50
2023-02-19T15:48:35.020Z,0.80
2023-02-19T15:51:53.973Z,0.90
2023-02-19T15:55:32.945Z,0.70
2023-02-19T15:58:52.605Z,0.50
2023-02-19T16:02:08.969Z,0.73
2023-02-19T16:05:33.981Z,0.70
2023-02-19T16:08:44.985Z,0.70
2023-02-19T16:12:03.994Z,0.70
2023-02-19T16:15:14.805Z,0.80
2023-02-19T16:18:29.979Z,0.75
2023-02-19T16:21:39.010Z,2.17
2023-02-19T16:24:57.921Z,0.75
2023-02-19T16:28:07.045Z,0.90
2023-02-19T16:31:16.193Z,0.73
2023-02-19T16:34:38.038Z,1.00
2023-02-19T16:37:58.549Z,0.77
2023-02-19T16:41:17.958Z,0.80
2023-02-19T16:44:39.969Z,1.13
2023-02-19T16:47:49.064Z,0.90
2023-02-19T16:51:05.025Z,0.88
2023-02-19T16:54:09.422Z,0.80
2023-02-19T16:57:25.004Z,0.70
2023-02-19T17:00:38.013Z,1.60
2023-02-19T17:03:47.087Z,0.70
2023-02-19T17:06:56.016Z,1.05
2023-02-19T17:10:05.213Z,0.80
2023-02-19T17:13:21.002Z,0.70
2023-02-19T17:16:33.019Z,0.60
2023-02-19T17:19:42.037Z,0.87
2023-02-19T17:22:57.971Z,0.90
2023-02-19T17:26:13.018Z,0.70
2023-02-19T17:29:16.530Z,0.50
2023-02-19T17:32:31.242Z,0.90
2023-02-19T17:35:33.337Z,0.63
2023-02-19T17:38:48.990Z,1.30
2023-02-19T17:41:57.985Z,1.00
2023-02-19T17:45:14.023Z,1.00
2023-02-19T17:48:23.008Z,0.90
2023-02-19T17:51:37.968Z,0.70
2023-02-19T17:54:40.245Z,1.00
2023-02-19T17:58:01.984Z,0.70
2023-02-19T18:01:11.516Z,0.50
2023-02-19T18:04:27.046Z,0.60
2023-02-19T18:07:29.237Z,1.00
2023-02-19T18:10:44.977Z,1.48
2023-02-19T18:13:48.161Z,1.70
2023-02-19T18:17:04.101Z,0.95
2023-02-19T18:20:18.638Z,1.00
2023-02-19T18:23:34.062Z,1.20
2023-02-19T18:26:50.003Z,1.45
2023-02-19T18:30:06.108Z,1.10
2023-02-19T18:33:15.099Z,1.80
2023-02-19T18:36:30.115Z,1.90
2023-02-19T18:39:46.039Z,0.90
2023-02-19T18:42:54.102Z,1.05
2023-02-19T18:46:03.013Z,1.52
2023-02-19T18:49:12.082Z,0.90
2023-02-19T18:52:22.662Z,1.43
2023-02-19T18:55:32.381Z,2.43
2023-02-19T18:58:41.026Z,1.52
2023-02-19T19:01:50.081Z,0.77
2023-02-19T19:05:05.069Z,1.35
2023-02-19T19:08:07.233Z,0.80
2023-02-19T19:11:23.039Z,0.90
2023-02-19T19:14:25.528Z,1.10
2023-02-19T19:17:41.029Z,0.90
2023-02-19T19:20:52.036Z,1.48
2023-02-19T19:24:02.165Z,1.30
2023-02-19T19:27:11.054Z,1.23
2023-02-19T19:30:20.432Z,1.33
2023-02-19T19:33:36.358Z,0.98
2023-02-19T19:36:45.072Z,1.10
2023-02-19T19:39:54.129Z,1.30
2023-02-19T19:43:09.070Z,1.50
2023-02-19T19:46:19.340Z,1.30
2023-02-19T19:49:30.114Z,1.40
2023-02-19T19:52:46.193Z,1.42
2023-02-19T19:55:48.372Z,1.80
2023-02-19T19:59:03.066Z,1.53
2023-02-19T20:02:06.877Z,2.67
2023-02-19T20:05:23.101Z,1.70
2023-02-19T20:08:25.449Z,1.35
2023-02-19T20:11:40.101Z,2.00
2023-02-19T20:14:46.060Z,1.97
2023-02-19T20:18:02.109Z,1.33
2023-02-19T20:21:18.077Z,1.73
2023-02-19T20:24:34.052Z,1.90
2023-02-19T20:27:43.021Z,1.50
2023-02-19T20:30:59.163Z,2.27
2023-02-19T20:34:14.038Z,2.00
2023-02-19T20:37:16.681Z,1.87
2023-02-19T20:40:33.082Z,1.58
2023-02-19T20:43:35.205Z,2.03
2023-02-19T20:46:56.056Z,1.50
2023-02-19T20:49:58.237Z,2.20
2023-02-19T20:53:14.122Z,2.00
2023-02-19T20:56:16.251Z,1.85
2023-02-19T20:59:39.076Z,2.00
2023-02-19T21:02:41.250Z,2.00
2023-02-19T21:05:57.091Z,1.80
2023-02-19T21:08:59.270Z,1.90
2023-02-19T21:12:15.188Z,1.67
2023-02-19T21:15:17.345Z,1.67
2023-02-19T21:18:32.100Z,1.40
2023-02-19T21:21:41.111Z,1.50
2023-02-19T21:24:57.082Z,1.50
2023-02-19T21:27:59.072Z,1.55
2023-02-19T21:31:15.136Z,2.27
2023-02-19T21:34:27.128Z,2.20
2023-02-19T21:37:35.789Z,1.87
2023-02-19T21:40:44.080Z,2.00
2023-02-19T21:43:55.007Z,2.78
2023-02-19T21:47:04.126Z,2.40
2023-02-19T21:50:13.146Z,2.10
2023-02-19T21:53:22.101Z,2.08
2023-02-19T21:56:39.138Z,1.80
2023-02-19T21:59:41.305Z,1.67
2023-02-19T22:02:57.122Z,1.80
2023-02-19T22:06:01.869Z,1.43
2023-02-19T22:09:17.090Z,1.80
2023-02-19T22:12:26.117Z,2.03
2023-02-19T22:15:35.213Z,1.50
2023-02-19T22:18:44.133Z,1.50
2023-02-19T22:21:53.154Z,1.60
2023-02-19T22:25:01.161Z,1.12
2023-02-19T22:28:16.122Z,1.50
2023-02-19T22:31:20.425Z,2.03
2023-02-19T22:34:35.143Z,1.43
2023-02-19T22:37:37.048Z,1.50
2023-02-19T22:40:52.191Z,1.80
2023-02-19T22:43:55.347Z,1.83
2023-02-19T22:47:10.165Z,2.67
2023-02-19T22:50:20.897Z,2.37
2023-02-19T22:53:36.155Z,1.07
2023-02-19T22:56:37.998Z,1.37
2023-02-19T23:00:00.170Z,1.60
2023-02-19T23:03:08.149Z,1.40
2023-02-19T23:06:27.116Z,1.47
2023-02-19T23:09:36.134Z,1.20
2023-02-19T23:12:44.760Z,1.40
2023-02-19T23:15:59.113Z,1.20
2023-02-19T23:19:01.916Z,1.60
2023-02-19T23:22:16.140Z,1.30
2023-02-19T23:25:18.117Z,1.60
2023-02-19T23:28:33.161Z,1.50
2023-02-19T23:31:35.167Z,1.05
2023-02-19T23:34:50.197Z,1.10
2023-02-19T23:37:52.053Z,1.10
2023-02-19T23:41:07.162Z,1.83
2023-02-19T23:44:24.209Z,1.65
2023-02-19T23:47:26.104Z,1.10
2023-02-19T23:50:45.203Z,1.10
2023-02-19T23:53:47.118Z,1.27
2023-02-19T23:57:09.173Z,1.20
